sensor_id;sensor_type;location;lat;lon;timestamp;pressure;altitude;pressure_sealevel;temperature;humidity
46199;BME280;31928;52.104;10.030;2023-04-02T00:00:09;100096.28;;;9.21;54.23
46199;BME280;31928;52.104;10.030;2023-04-02T00:08:01;100114.59;;;9.17;54.08
46199;BME280;31928;52.104;10.030;2023-04-02T00:10:30;100122.81;;;9.16;54.45
46199;BME280;31928;52.104;10.030;2023-04-02T00:13:01;100128.16;;;9.16;54.40
46199;BME280;31928;52.104;10.030;2023-04-02T00:15:28;100125.91;;;9.13;54.40
46199;BME280;31928;52.104;10.030;2023-04-02T00:17:56;100131.47;;;9.11;54.01
46199;BME280;31928;52.104;10.030;2023-04-02T00:20:23;100138.03;;;9.09;54.30
46199;BME280;31928;52.104;10.030;2023-04-02T00:22:50;100149.78;;;9.08;54.16
46199;BME280;31928;52.104;10.030;2023-04-02T00:25:17;100156.16;;;9.07;54.23
46199;BME280;31928;52.104;10.030;2023-04-02T00:27:44;100158.44;;;9.03;54.32
46199;BME280;31928;52.104;10.030;2023-04-02T00:30:11;100157.00;;;9.01;54.18
46199;BME280;31928;52.104;10.030;2023-04-02T00:32:38;100164.41;;;8.99;54.05
46199;BME280;31928;52.104;10.030;2023-04-02T00:35:12;100161.09;;;8.97;54.27
46199;BME280;31928;52.104;10.030;2023-04-02T00:37:42;100182.91;;;8.94;53.97
46199;BME280;31928;52.104;10.030;2023-04-02T00:40:18;100176.34;;;8.90;53.97
46199;BME280;31928;52.104;10.030;2023-04-02T00:42:47;100180.03;;;8.89;53.89
46199;BME280;31928;52.104;10.030;2023-04-02T00:45:23;100184.16;;;8.85;54.32
46199;BME280;31928;52.104;10.030;2023-04-02T00:47:50;100186.41;;;8.82;54.02
46199;BME280;31928;52.104;10.030;2023-04-02T00:50:19;100194.00;;;8.78;53.93
46199;BME280;31928;52.104;10.030;2023-04-02T00:52:48;100186.41;;;8.75;54.21
46199;BME280;31928;52.104;10.030;2023-04-02T00:55:16;100203.47;;;8.74;53.83
46199;BME280;31928;52.104;10.030;2023-04-02T00:57:46;100196.69;;;8.72;54.28
46199;BME280;31928;52.104;10.030;2023-04-02T01:00:19;100200.59;;;8.69;54.07
46199;BME280;31928;52.104;10.030;2023-04-02T01:05:33;100209.44;;;8.63;53.85
46199;BME280;31928;52.104;10.030;2023-04-02T01:15:37;100222.38;;;8.53;53.91
46199;BME280;31928;52.104;10.030;2023-04-02T01:28:15;100238.78;;;8.38;54.00
46199;BME280;31928;52.104;10.030;2023-04-02T01:30:47;100247.81;;;8.37;53.87
46199;BME280;31928;52.104;10.030;2023-04-02T01:33:16;100256.03;;;8.35;54.02
46199;BME280;31928;52.104;10.030;2023-04-02T01:35:43;100258.91;;;8.34;54.07
46199;BME280;31928;52.104;10.030;2023-04-02T01:38:16;100260.13;;;8.31;53.73
46199;BME280;31928;52.104;10.030;2023-04-02T01:40:49;100265.66;;;8.30;53.65
46199;BME280;31928;52.104;10.030;2023-04-02T01:45:48;100277.75;;;8.26;53.79
46199;BME280;31928;52.104;10.030;2023-04-02T01:48:16;100285.75;;;8.26;54.02
46199;BME280;31928;52.104;10.030;2023-04-02T01:50:43;100291.50;;;8.23;53.63
46199;BME280;31928;52.104;10.030;2023-04-02T01:53:11;100297.88;;;8.22;53.69
46199;BME280;31928;52.104;10.030;2023-04-02T01:55:46;100303.63;;;8.19;53.95
46199;BME280;31928;52.104;10.030;2023-04-02T01:58:16;100308.31;;;8.17;53.72
46199;BME280;31928;52.104;10.030;2023-04-02T02:00:48;100311.00;;;8.17;53.64
46199;BME280;31928;52.104;10.030;2023-04-02T02:03:16;100316.75;;;8.14;53.96
46199;BME280;31928;52.104;10.030;2023-04-02T02:05:44;100317.56;;;8.14;53.73
46199;BME280;31928;52.104;10.030;2023-04-02T02:08:17;100330.09;;;8.14;53.84
46199;BME280;31928;52.104;10.030;2023-04-02T02:10:47;100338.47;;;8.11;53.67
46199;BME280;31928;52.104;10.030;2023-04-02T02:13:14;100338.47;;;8.11;53.74
46199;BME280;31928;52.104;10.030;2023-04-02T02:15:41;100333.13;;;8.11;53.99
46199;BME280;31928;52.104;10.030;2023-04-02T02:18:09;100340.50;;;8.09;53.68
46199;BME280;31928;52.104;10.030;2023-04-02T02:20:36;100357.34;;;8.09;53.75
46199;BME280;31928;52.104;10.030;2023-04-02T02:23:03;100349.53;;;8.08;53.69
46199;BME280;31928;52.104;10.030;2023-04-02T02:25:31;100358.56;;;8.07;53.73
46199;BME280;31928;52.104;10.030;2023-04-02T02:30:26;100361.63;;;8.04;53.69
46199;BME280;31928;52.104;10.030;2023-04-02T02:32:56;100363.88;;;8.00;53.42
46199;BME280;31928;52.104;10.030;2023-04-02T02:35:32;100373.09;;;7.98;53.30
46199;BME280;31928;52.104;10.030;2023-04-02T02:40:46;100386.22;;;7.93;53.43
46199;BME280;31928;52.104;10.030;2023-04-02T02:43:15;100383.94;;;7.90;53.56
46199;BME280;31928;52.104;10.030;2023-04-02T02:45:43;100393.97;;;7.88;53.29
46199;BME280;31928;52.104;10.030;2023-04-02T02:48:12;100396.00;;;7.86;53.24
46199;BME280;31928;52.104;10.030;2023-04-02T02:50:40;100406.06;;;7.84;53.49
46199;BME280;31928;52.104;10.030;2023-04-02T02:53:18;100413.41;;;7.82;53.20
46199;BME280;31928;52.104;10.030;2023-04-02T02:55:46;100406.47;;;7.81;53.34
46199;BME280;31928;52.104;10.030;2023-04-02T02:58:15;100421.19;;;7.77;53.30
46199;BME280;31928;52.104;10.030;2023-04-02T03:00:43;100423.22;;;7.75;53.31
46199;BME280;31928;52.104;10.030;2023-04-02T03:03:11;100429.56;;;7.74;53.51
46199;BME280;31928;52.104;10.030;2023-04-02T03:05:40;100438.78;;;7.72;53.59
46199;BME280;31928;52.104;10.030;2023-04-02T03:08:10;100439.63;;;7.72;53.47
46199;BME280;31928;52.104;10.030;2023-04-02T03:10:43;100442.47;;;7.71;53.39
46199;BME280;31928;52.104;10.030;2023-04-02T03:13:20;100447.00;;;7.70;53.39
46199;BME280;31928;52.104;10.030;2023-04-02T03:20:57;100474.88;;;7.68;53.35
46199;BME280;31928;52.104;10.030;2023-04-02T03:23:29;100474.06;;;7.67;53.55
46199;BME280;31928;52.104;10.030;2023-04-02T03:25:59;100473.22;;;7.67;53.24
46199;BME280;31928;52.104;10.030;2023-04-02T03:28:31;100477.75;;;7.66;53.31
46199;BME280;31928;52.104;10.030;2023-04-02T03:31:05;100481.44;;;7.65;53.20
46199;BME280;31928;52.104;10.030;2023-04-02T03:36:46;100494.16;;;7.63;53.37
46199;BME280;31928;52.104;10.030;2023-04-02T03:41:42;100505.19;;;7.60;53.51
46199;BME280;31928;52.104;10.030;2023-04-02T03:44:20;100513.19;;;7.60;53.24
46199;BME280;31928;52.104;10.030;2023-04-02T03:46:56;100518.50;;;7.60;53.28
46199;BME280;31928;52.104;10.030;2023-04-02T03:49:25;100520.56;;;7.58;53.44
46199;BME280;31928;52.104;10.030;2023-04-02T03:51:59;100530.22;;;7.59;53.15
46199;BME280;31928;52.104;10.030;2023-04-02T03:54:27;100527.72;;;7.58;53.41
46199;BME280;31928;52.104;10.030;2023-04-02T03:56:54;100532.25;;;7.57;53.42
46199;BME280;31928;52.104;10.030;2023-04-02T04:04:34;100544.94;;;7.55;53.35
46199;BME280;31928;52.104;10.030;2023-04-02T04:07:05;100555.59;;;7.55;53.32
46199;BME280;31928;52.104;10.030;2023-04-02T04:09:37;100561.97;;;7.54;53.17
46199;BME280;31928;52.104;10.030;2023-04-02T04:12:18;100564.63;;;7.54;53.49
46199;BME280;31928;52.104;10.030;2023-04-02T04:14:50;100577.13;;;7.54;53.08
46199;BME280;31928;52.104;10.030;2023-04-02T04:17:25;100572.66;;;7.54;53.15
46199;BME280;31928;52.104;10.030;2023-04-02T04:20:00;100579.81;;;7.54;53.06
46199;BME280;31928;52.104;10.030;2023-04-02T04:22:33;100583.31;;;7.54;53.18
46199;BME280;31928;52.104;10.030;2023-04-02T04:25:15;100582.66;;;7.52;53.36
46199;BME280;31928;52.104;10.030;2023-04-02T04:30:36;100598.66;;;7.52;53.24
46199;BME280;31928;52.104;10.030;2023-04-02T04:33:16;100599.66;;;7.51;53.07
46199;BME280;31928;52.104;10.030;2023-04-02T04:35:52;100605.84;;;7.52;52.96
46199;BME280;31928;52.104;10.030;2023-04-02T04:38:29;100607.66;;;7.51;52.93
46199;BME280;31928;52.104;10.030;2023-04-02T04:41:17;100617.72;;;7.49;52.88
46199;BME280;31928;52.104;10.030;2023-04-02T04:43:51;100618.72;;;7.48;53.11
46199;BME280;31928;52.104;10.030;2023-04-02T04:46:31;100619.53;;;7.49;52.99
46199;BME280;31928;52.104;10.030;2023-04-02T04:49:01;100630.22;;;7.49;53.14
46199;BME280;31928;52.104;10.030;2023-04-02T04:51:38;100633.06;;;7.47;52.77
46199;BME280;31928;52.104;10.030;2023-04-02T04:54:14;100640.06;;;7.48;53.11
46199;BME280;31928;52.104;10.030;2023-04-02T04:56:45;100649.06;;;7.47;52.76
46199;BME280;31928;52.104;10.030;2023-04-02T04:59:17;100646.59;;;7.46;52.89
46199;BME280;31928;52.104;10.030;2023-04-02T05:01:47;100655.44;;;7.46;52.70
46199;BME280;31928;52.104;10.030;2023-04-02T05:04:18;100656.44;;;7.45;52.96
46199;BME280;31928;52.104;10.030;2023-04-02T05:06:54;100665.47;;;7.44;52.91
46199;BME280;31928;52.104;10.030;2023-04-02T05:14:54;100681.47;;;7.44;52.90
46199;BME280;31928;52.104;10.030;2023-04-02T05:17:27;100683.47;;;7.42;52.80
46199;BME280;31928;52.104;10.030;2023-04-02T05:22:30;100699.47;;;7.42;52.57
46199;BME280;31928;52.104;10.030;2023-04-02T05:25:01;100701.13;;;7.43;52.77
46199;BME280;31928;52.104;10.030;2023-04-02T05:27:39;100697.47;;;7.44;52.67
46199;BME280;31928;52.104;10.030;2023-04-02T05:32:49;100705.47;;;7.44;52.60
46199;BME280;31928;52.104;10.030;2023-04-02T05:35:19;100717.81;;;7.45;52.58
46199;BME280;31928;52.104;10.030;2023-04-02T05:37:48;100720.47;;;7.45;52.66
46199;BME280;31928;52.104;10.030;2023-04-02T05:43:06;100729.47;;;7.44;52.65
46199;BME280;31928;52.104;10.030;2023-04-02T05:45:34;100726.81;;;7.44;52.53
46199;BME280;31928;52.104;10.030;2023-04-02T05:48:04;100733.81;;;7.45;52.88
46199;BME280;31928;52.104;10.030;2023-04-02T05:50:36;100748.81;;;7.46;52.86
46199;BME280;31928;52.104;10.030;2023-04-02T05:53:07;100751.28;;;7.48;52.46
46199;BME280;31928;52.104;10.030;2023-04-02T05:58:15;100763.59;;;7.49;52.54
46199;BME280;31928;52.104;10.030;2023-04-02T06:03:44;100772.25;;;7.51;52.65
46199;BME280;31928;52.104;10.030;2023-04-02T06:06:13;100781.91;;;7.52;52.41
46199;BME280;31928;52.104;10.030;2023-04-02T06:08:41;100780.06;;;7.52;52.65
46199;BME280;31928;52.104;10.030;2023-04-02T06:11:12;100780.06;;;7.52;52.59
46199;BME280;31928;52.104;10.030;2023-04-02T06:13:41;100792.38;;;7.53;52.54
46199;BME280;31928;52.104;10.030;2023-04-02T06:16:09;100793.19;;;7.54;52.27
46199;BME280;31928;52.104;10.030;2023-04-02T06:18:38;100790.53;;;7.54;52.48
46199;BME280;31928;52.104;10.030;2023-04-02T06:21:05;100789.53;;;7.55;52.23
46199;BME280;31928;52.104;10.030;2023-04-02T06:23:36;100798.34;;;7.55;52.38
46199;BME280;31928;52.104;10.030;2023-04-02T06:31:44;100829.03;;;7.59;52.54
46199;BME280;31928;52.104;10.030;2023-04-02T06:34:18;100829.03;;;7.59;52.48
46199;BME280;31928;52.104;10.030;2023-04-02T06:36:45;100839.69;;;7.59;52.54
46199;BME280;31928;52.104;10.030;2023-04-02T06:39:17;100839.31;;;7.62;52.54
46199;BME280;31928;52.104;10.030;2023-04-02T06:41:45;100843.66;;;7.63;52.55
46199;BME280;31928;52.104;10.030;2023-04-02T06:44:15;100847.94;;;7.64;52.59
46199;BME280;31928;52.104;10.030;2023-04-02T06:51:39;100850.91;;;7.69;52.39
46199;BME280;31928;52.104;10.030;2023-04-02T06:54:10;100867.38;;;7.73;53.00
46199;BME280;31928;52.104;10.030;2023-04-02T06:56:41;100867.09;;;7.82;53.62
46199;BME280;31928;52.104;10.030;2023-04-02T06:59:08;100872.63;;;7.95;53.94
46199;BME280;31928;52.104;10.030;2023-04-02T07:01:48;100867.94;;;8.11;54.56
46199;BME280;31928;52.104;10.030;2023-04-02T07:04:17;100875.25;;;8.32;54.18
46199;BME280;31928;52.104;10.030;2023-04-02T07:06:44;100885.34;;;8.50;54.05
46199;BME280;31928;52.104;10.030;2023-04-02T07:09:11;100885.13;;;8.66;53.69
46199;BME280;31928;52.104;10.030;2023-04-02T07:11:37;100896.63;;;8.81;54.15
46199;BME280;31928;52.104;10.030;2023-04-02T07:14:04;100892.69;;;8.98;53.73
46199;BME280;31928;52.104;10.030;2023-04-02T07:16:31;100909.88;;;9.10;53.71
46199;BME280;31928;52.104;10.030;2023-04-02T07:18:58;100915.34;;;9.23;53.95
46199;BME280;31928;52.104;10.030;2023-04-02T07:21:25;100918.34;;;9.34;53.91
46199;BME280;31928;52.104;10.030;2023-04-02T07:23:52;100921.34;;;9.46;53.75
46199;BME280;31928;52.104;10.030;2023-04-02T07:26:20;100934.19;;;9.56;53.49
46199;BME280;31928;52.104;10.030;2023-04-02T07:28:48;100941.72;;;9.67;53.22
46199;BME280;31928;52.104;10.030;2023-04-02T07:33:42;100940.41;;;9.84;53.15
46199;BME280;31928;52.104;10.030;2023-04-02T07:36:11;100943.34;;;9.89;52.81
46199;BME280;31928;52.104;10.030;2023-04-02T07:38:38;100945.25;;;9.95;52.58
46199;BME280;31928;52.104;10.030;2023-04-02T07:41:05;100946.53;;;9.99;52.48
46199;BME280;31928;52.104;10.030;2023-04-02T07:43:32;100955.66;;;10.05;52.55
46199;BME280;31928;52.104;10.030;2023-04-02T07:45:59;100955.25;;;10.08;52.15
46199;BME280;31928;52.104;10.030;2023-04-02T07:48:26;100966.41;;;10.11;52.20
46199;BME280;31928;52.104;10.030;2023-04-02T07:50:52;100968.88;;;10.13;51.99
46199;BME280;31928;52.104;10.030;2023-04-02T07:53:26;100983.75;;;10.15;51.63
46199;BME280;31928;52.104;10.030;2023-04-02T07:55:56;100982.06;;;10.14;51.39
46199;BME280;31928;52.104;10.030;2023-04-02T07:58:22;100979.81;;;10.11;51.05
46199;BME280;31928;52.104;10.030;2023-04-02T08:00:49;100981.22;;;10.07;50.79
46199;BME280;31928;52.104;10.030;2023-04-02T08:03:16;100993.16;;;10.05;50.68
46199;BME280;31928;52.104;10.030;2023-04-02T08:05:42;101000.13;;;9.99;50.60
46199;BME280;31928;52.104;10.030;2023-04-02T08:08:14;101006.59;;;9.90;50.37
46199;BME280;31928;52.104;10.030;2023-04-02T08:10:40;101002.00;;;9.84;50.74
46199;BME280;31928;52.104;10.030;2023-04-02T08:13:07;101008.13;;;9.78;50.46
46199;BME280;31928;52.104;10.030;2023-04-02T08:15:33;101017.13;;;9.71;50.57
46199;BME280;31928;52.104;10.030;2023-04-02T08:18:01;101022.41;;;9.64;50.53
46199;BME280;31928;52.104;10.030;2023-04-02T08:20:27;101021.97;;;9.61;50.75
46199;BME280;31928;52.104;10.030;2023-04-02T08:22:56;101021.91;;;9.55;50.67
46199;BME280;31928;52.104;10.030;2023-04-02T08:25:23;101030.47;;;9.50;50.71
46199;BME280;31928;52.104;10.030;2023-04-02T08:27:50;101043.78;;;9.44;50.67
46199;BME280;31928;52.104;10.030;2023-04-02T08:30:17;101043.56;;;9.39;50.34
46199;BME280;31928;52.104;10.030;2023-04-02T08:32:43;101056.66;;;9.34;50.76
46199;BME280;31928;52.104;10.030;2023-04-02T08:35:11;101053.72;;;9.29;50.74
46199;BME280;31928;52.104;10.030;2023-04-02T08:37:38;101047.91;;;9.25;50.56
46199;BME280;31928;52.104;10.030;2023-04-02T08:40:05;101054.66;;;9.21;50.80
46199;BME280;31928;52.104;10.030;2023-04-02T08:42:39;101064.88;;;9.18;50.63
46199;BME280;31928;52.104;10.030;2023-04-02T08:47:54;101064.81;;;9.11;50.74
46199;BME280;31928;52.104;10.030;2023-04-02T08:52:49;101074.22;;;9.07;50.87
46199;BME280;31928;52.104;10.030;2023-04-02T08:55:32;101069.88;;;9.06;50.73
46199;BME280;31928;52.104;10.030;2023-04-02T08:58:08;101082.44;;;9.06;50.94
46199;BME280;31928;52.104;10.030;2023-04-02T09:00:41;101079.78;;;9.06;51.00
46199;BME280;31928;52.104;10.030;2023-04-02T09:03:11;101088.78;;;9.05;50.93
46199;BME280;31928;52.104;10.030;2023-04-02T09:05:42;101092.94;;;9.07;51.13
46199;BME280;31928;52.104;10.030;2023-04-02T09:08:16;101086.78;;;9.07;51.05
46199;BME280;31928;52.104;10.030;2023-04-02T09:10:48;101092.75;;;9.09;51.21
46199;BME280;31928;52.104;10.030;2023-04-02T09:13:22;101097.09;;;9.10;50.94
46199;BME280;31928;52.104;10.030;2023-04-02T09:15:50;101102.44;;;9.10;50.93
46199;BME280;31928;52.104;10.030;2023-04-02T09:18:18;101106.78;;;9.11;51.15
46199;BME280;31928;52.104;10.030;2023-04-02T09:20:45;101112.13;;;9.11;51.00
46199;BME280;31928;52.104;10.030;2023-04-02T09:23:19;101121.84;;;9.12;51.14
46199;BME280;31928;52.104;10.030;2023-04-02T09:25:49;101127.19;;;9.12;51.07
46199;BME280;31928;52.104;10.030;2023-04-02T09:28:29;101132.34;;;9.13;50.98
46199;BME280;31928;52.104;10.030;2023-04-02T09:31:04;101130.47;;;9.14;51.32
46199;BME280;31928;52.104;10.030;2023-04-02T09:33:41;101134.81;;;9.15;51.27
46199;BME280;31928;52.104;10.030;2023-04-02T09:36:16;101153.16;;;9.18;51.31
46199;BME280;31928;52.104;10.030;2023-04-02T09:38:56;101141.47;;;9.19;51.44
46199;BME280;31928;52.104;10.030;2023-04-02T09:41:24;101154.47;;;9.22;51.44
46199;BME280;31928;52.104;10.030;2023-04-02T09:44:10;101163.13;;;9.24;51.24
46199;BME280;31928;52.104;10.030;2023-04-02T09:46:36;101165.63;;;9.25;51.29
46199;BME280;31928;52.104;10.030;2023-04-02T09:49:03;101163.81;;;9.26;51.01
46199;BME280;31928;52.104;10.030;2023-04-02T09:51:32;101173.47;;;9.27;51.13
46199;BME280;31928;52.104;10.030;2023-04-02T09:56:36;101183.81;;;9.30;50.94
46199;BME280;31928;52.104;10.030;2023-04-02T10:01:30;101192.66;;;9.30;50.88
46199;BME280;31928;52.104;10.030;2023-04-02T10:03:58;101201.50;;;9.31;50.73
46199;BME280;31928;52.104;10.030;2023-04-02T10:06:26;101198.84;;;9.31;50.96
46199;BME280;31928;52.104;10.030;2023-04-02T10:08:53;101212.22;;;9.31;50.58
46199;BME280;31928;52.104;10.030;2023-04-02T10:11:27;101219.22;;;9.32;50.70
46199;BME280;31928;52.104;10.030;2023-04-02T10:14:10;101220.91;;;9.33;50.84
46199;BME280;31928;52.104;10.030;2023-04-02T11:06:52;101274.78;;;9.87;50.62
46199;BME280;31928;52.104;10.030;2023-04-02T11:09:40;101272.38;;;9.92;50.61
46199;BME280;31928;52.104;10.030;2023-04-02T11:12:10;101273.69;;;9.96;50.22
46199;BME280;31928;52.104;10.030;2023-04-02T11:14:42;101280.34;;;10.00;50.67
46199;BME280;31928;52.104;10.030;2023-04-02T11:17:10;101283.66;;;10.02;50.31
46199;BME280;31928;52.104;10.030;2023-04-02T11:19:39;101283.28;;;10.05;50.34
46199;BME280;31928;52.104;10.030;2023-04-02T11:22:13;101291.97;;;10.07;49.98
46199;BME280;31928;52.104;10.030;2023-04-02T11:24:46;101295.28;;;10.09;50.19
46199;BME280;31928;52.104;10.030;2023-04-02T11:27:24;101296.13;;;10.10;49.80
46199;BME280;31928;52.104;10.030;2023-04-02T11:30:03;101304.78;;;10.12;50.21
46199;BME280;31928;52.104;10.030;2023-04-02T11:32:35;101301.94;;;10.13;50.16
46199;BME280;31928;52.104;10.030;2023-04-02T11:35:20;101298.22;;;10.14;49.94
46199;BME280;31928;52.104;10.030;2023-04-02T11:37:48;101313.97;;;10.17;50.05
46199;BME280;31928;52.104;10.030;2023-04-02T11:42:42;101318.75;;;10.21;49.88
46199;BME280;31928;52.104;10.030;2023-04-02T11:50:47;101320.75;;;10.34;49.93
46199;BME280;31928;52.104;10.030;2023-04-02T11:55:43;101325.63;;;10.45;49.98
46199;BME280;31928;52.104;10.030;2023-04-02T11:58:30;101328.75;;;10.48;49.97
46199;BME280;31928;52.104;10.030;2023-04-02T12:06:06;101342.97;;;10.63;49.89
46199;BME280;31928;52.104;10.030;2023-04-02T12:08:48;101347.94;;;10.66;49.20
46199;BME280;31928;52.104;10.030;2023-04-02T12:11:30;101344.66;;;10.71;49.22
46199;BME280;31928;52.104;10.030;2023-04-02T12:13:58;101351.69;;;10.72;49.47
46199;BME280;31928;52.104;10.030;2023-04-02T12:16:25;101362.06;;;10.75;49.13
46199;BME280;31928;52.104;10.030;2023-04-02T12:18:56;101363.16;;;10.80;49.70
46199;BME280;31928;52.104;10.030;2023-04-02T12:21:25;101356.84;;;10.87;49.93
46199;BME280;31928;52.104;10.030;2023-04-02T12:23:53;101363.09;;;10.94;49.73
46199;BME280;31928;52.104;10.030;2023-04-02T12:26:42;101352.88;;;11.04;50.08
46199;BME280;31928;52.104;10.030;2023-04-02T12:31:41;101359.84;;;11.20;49.52
46199;BME280;31928;52.104;10.030;2023-04-02T12:34:12;101364.25;;;11.27;49.43
46199;BME280;31928;52.104;10.030;2023-04-02T12:36:39;101362.25;;;11.36;49.88
46199;BME280;31928;52.104;10.030;2023-04-02T12:39:16;101366.44;;;11.44;49.41
46199;BME280;31928;52.104;10.030;2023-04-02T12:41:43;101361.16;;;11.51;49.32
46199;BME280;31928;52.104;10.030;2023-04-02T12:44:14;101356.66;;;11.58;49.12
46199;BME280;31928;52.104;10.030;2023-04-02T12:46:44;101367.28;;;11.66;49.33
46199;BME280;31928;52.104;10.030;2023-04-02T12:51:56;101365.56;;;11.86;49.67
46199;BME280;31928;52.104;10.030;2023-04-02T12:54:24;101359.25;;;11.99;49.76
46199;BME280;31928;52.104;10.030;2023-04-02T12:56:50;101357.25;;;12.14;49.48
46199;BME280;31928;52.104;10.030;2023-04-02T12:59:32;101354.22;;;12.30;49.45
46199;BME280;31928;52.104;10.030;2023-04-02T13:02:02;101346.84;;;12.45;49.18
46199;BME280;31928;52.104;10.030;2023-04-02T13:04:29;101355.59;;;12.60;49.18
46199;BME280;31928;52.104;10.030;2023-04-02T13:06:56;101349.66;;;12.77;49.17
46199;BME280;31928;52.104;10.030;2023-04-02T13:09:44;101343.47;;;12.90;48.89
46199;BME280;31928;52.104;10.030;2023-04-02T13:14:54;101356.38;;;13.14;48.99
46199;BME280;31928;52.104;10.030;2023-04-02T13:22:52;101355.34;;;13.40;48.27
46199;BME280;31928;52.104;10.030;2023-04-02T13:25:19;101356.59;;;13.44;48.11
46199;BME280;31928;52.104;10.030;2023-04-02T13:27:49;101359.72;;;13.48;48.02
46199;BME280;31928;52.104;10.030;2023-04-02T13:30:18;101364.25;;;13.47;47.54
46199;BME280;31928;52.104;10.030;2023-04-02T13:32:47;101365.91;;;13.48;47.40
46199;BME280;31928;52.104;10.030;2023-04-02T13:35:13;101358.66;;;13.49;47.61
46199;BME280;31928;52.104;10.030;2023-04-02T13:37:40;101371.31;;;13.48;47.32
46199;BME280;31928;52.104;10.030;2023-04-02T13:40:11;101372.34;;;13.47;47.28
46199;BME280;31928;52.104;10.030;2023-04-02T13:42:38;101358.25;;;13.45;47.55
46199;BME280;31928;52.104;10.030;2023-04-02T13:45:05;101354.13;;;13.43;47.26
46199;BME280;31928;52.104;10.030;2023-04-02T13:47:42;101362.41;;;13.41;47.65
46199;BME280;31928;52.104;10.030;2023-04-02T13:50:08;101366.13;;;13.40;47.63
46199;BME280;31928;52.104;10.030;2023-04-02T13:52:41;101362.41;;;13.41;47.61
46199;BME280;31928;52.104;10.030;2023-04-02T13:55:07;101367.81;;;13.48;47.78
46199;BME280;31928;52.104;10.030;2023-04-02T13:57:35;101361.97;;;13.57;48.17
46199;BME280;31928;52.104;10.030;2023-04-02T14:00:03;101368.19;;;13.71;47.91
46199;BME280;31928;52.104;10.030;2023-04-02T14:02:30;101373.97;;;13.87;48.52
46199;BME280;31928;52.104;10.030;2023-04-02T14:05:14;101371.44;;;14.05;48.12
46199;BME280;31928;52.104;10.030;2023-04-02T14:08:01;101376.00;;;14.24;47.91
46199;BME280;31928;52.104;10.030;2023-04-02T14:10:41;101374.28;;;14.42;48.00
46199;BME280;31928;52.104;10.030;2023-04-02T14:15:47;101382.47;;;14.66;47.78
46199;BME280;31928;52.104;10.030;2023-04-02T14:20:51;101388.25;;;14.76;46.73
46199;BME280;31928;52.104;10.030;2023-04-02T14:26:16;101391.22;;;14.68;46.07
46199;BME280;31928;52.104;10.030;2023-04-02T14:28:53;101385.84;;;14.62;46.24
46199;BME280;31928;52.104;10.030;2023-04-02T14:34:45;101398.97;;;14.45;46.18
46199;BME280;31928;52.104;10.030;2023-04-02T14:37:08;101407.72;;;14.35;45.94
46199;BME280;31928;52.104;10.030;2023-04-02T14:42:15;101400.09;;;14.19;46.29
46199;BME280;31928;52.104;10.030;2023-04-02T14:44:45;101396.78;;;14.10;45.98
46199;BME280;31928;52.104;10.030;2023-04-02T14:47:18;101406.50;;;14.05;46.21
46199;BME280;31928;52.104;10.030;2023-04-02T14:49:47;101406.31;;;14.00;45.74
46199;BME280;31928;52.104;10.030;2023-04-02T14:52:17;101419.56;;;13.95;45.62
46199;BME280;31928;52.104;10.030;2023-04-02T14:54:49;101416.69;;;13.90;46.02
46199;BME280;31928;52.104;10.030;2023-04-02T14:57:20;101410.06;;;13.86;45.83
46199;BME280;31928;52.104;10.030;2023-04-02T15:03:01;101417.09;;;13.87;46.10
46199;BME280;31928;52.104;10.030;2023-04-02T15:05:32;101423.72;;;13.91;46.10
46199;BME280;31928;52.104;10.030;2023-04-02T15:08:06;101427.06;;;13.93;46.05
46199;BME280;31928;52.104;10.030;2023-04-02T15:10:57;101431.44;;;13.94;46.05
46199;BME280;31928;52.104;10.030;2023-04-02T15:13:35;101433.50;;;13.92;45.50
46199;BME280;31928;52.104;10.030;2023-04-02T15:18:36;101432.03;;;13.83;45.33
46199;BME280;31928;52.104;10.030;2023-04-02T15:23:33;101434.94;;;13.81;46.00
46199;BME280;31928;52.104;10.030;2023-04-02T15:28:38;101447.38;;;13.89;46.02
46199;BME280;31928;52.104;10.030;2023-04-02T15:31:10;101437.84;;;13.93;45.83
46199;BME280;31928;52.104;10.030;2023-04-02T15:38:43;101448.00;;;14.10;46.05
46199;BME280;31928;52.104;10.030;2023-04-02T15:41:29;101450.69;;;14.17;45.35
46199;BME280;31928;52.104;10.030;2023-04-02T15:46:41;101458.59;;;14.25;45.54
46199;BME280;31928;52.104;10.030;2023-04-02T15:54:46;101458.78;;;14.23;45.42
46199;BME280;31928;52.104;10.030;2023-04-02T16:08:10;101475.56;;;14.38;45.39
46199;BME280;31928;52.104;10.030;2023-04-02T16:10:41;101480.16;;;14.38;45.14
46199;BME280;31928;52.104;10.030;2023-04-02T16:15:43;101480.97;;;14.32;44.92
46199;BME280;31928;52.104;10.030;2023-04-02T16:20:58;101486.19;;;14.20;44.97
46199;BME280;31928;52.104;10.030;2023-04-02T16:23:28;101497.63;;;14.16;44.80
46199;BME280;31928;52.104;10.030;2023-04-02T16:26:18;101496.75;;;14.09;44.74
46199;BME280;31928;52.104;10.030;2023-04-02T16:29:02;101503.78;;;14.03;45.04
46199;BME280;31928;52.104;10.030;2023-04-02T16:31:40;101510.00;;;13.97;44.82
46199;BME280;31928;52.104;10.030;2023-04-02T16:37:07;101502.94;;;13.83;44.96
46199;BME280;31928;52.104;10.030;2023-04-02T16:39:39;101511.03;;;13.77;44.57
46199;BME280;31928;52.104;10.030;2023-04-02T16:49:41;101529.03;;;13.57;44.66
46199;BME280;31928;52.104;10.030;2023-04-02T17:05:27;101562.25;;;13.18;44.67
46199;BME280;31928;52.104;10.030;2023-04-02T17:10:29;101571.94;;;13.06;44.27
46199;BME280;31928;52.104;10.030;2023-04-02T17:13:01;101568.16;;;13.00;44.36
46199;BME280;31928;52.104;10.030;2023-04-02T17:15:32;101576.03;;;12.95;44.40
46199;BME280;31928;52.104;10.030;2023-04-02T17:18:00;101574.78;;;12.91;44.55